Terminal Aerodrome Forecast
Issued by NWS Sioux Falls, SD

Home | Current Version | Previous Version | Graphics & Text | Print | Product List | Glossary Off
Versions: 1 2 3 4 5 6 7 8 9 10 11 12 13 14 15 16 17

000
FTUS43 KFSD 221735
TAFFSD
TAF
KFSD 221735Z 2218/2318 21010KT P6SM SCT150
     FM230500 18006KT P6SM BKN100
     FM230900 VRB03KT P6SM SCT004
     FM231500 29008KT P6SM BKN100=

USA.gov is the U.S. government's official web portal to all federal, state and local government web resources and services.